createdAt,value
2022-09-20T00:01:22.757Z,97355.81
2022-09-20T00:03:53.560Z,97357.72
2022-09-20T00:06:25.735Z,97356.13
2022-09-20T00:08:55.818Z,97354.88
2022-09-20T00:11:25.383Z,97361.69
2022-09-20T00:13:55.997Z,97368.97
2022-09-20T00:16:28.767Z,97355.94
2022-09-20T00:18:57.667Z,97358.81
2022-09-20T00:21:27.727Z,97360.34
2022-09-20T00:23:57.412Z,97360.34
2022-09-20T00:26:27.472Z,97349.69
2022-09-20T00:28:54.667Z,97351.41
2022-09-20T00:31:21.475Z,97349.84
2022-09-20T00:34:07.230Z,97348.44
2022-09-20T00:36:36.254Z,97346.59
2022-09-20T00:39:07.053Z,97346.41
2022-09-20T00:44:44.427Z,97347.25
2022-09-20T00:47:18.325Z,97352.72
2022-09-20T00:49:45.888Z,97355.34
2022-09-20T00:52:13.200Z,97350.91
2022-09-20T00:54:43.222Z,97353.44
2022-09-20T00:57:09.968Z,97354.31
2022-09-20T00:59:46.182Z,97349.28
2022-09-20T01:02:27.966Z,97352.06
2022-09-20T01:04:59.120Z,97351.59
2022-09-20T01:07:27.657Z,97341.78
2022-09-20T01:09:54.721Z,97342.03
2022-09-20T01:12:24.614Z,97335.25
2022-09-20T01:14:52.661Z,97328.34
2022-09-20T01:17:22.091Z,97328.47
2022-09-20T01:20:20.848Z,97322.59
2022-09-20T01:22:55.802Z,97316.84
2022-09-20T01:25:57.990Z,97311.84
2022-09-20T01:28:26.631Z,97314.81
2022-09-20T01:30:56.301Z,97315.63
2022-09-20T01:33:31.342Z,97317.59
2022-09-20T01:36:03.646Z,97319.66
2022-09-20T01:38:39.344Z,97326.91
2022-09-20T01:41:32.073Z,97326.94
2022-09-20T01:44:10.850Z,97326.69
2022-09-20T01:46:38.409Z,97327.31
2022-09-20T01:49:49.758Z,97320.28
2022-09-20T01:52:25.374Z,97319.53
2022-09-20T01:55:07.383Z,97319.13
2022-09-20T01:57:58.856Z,97324.19
2022-09-20T02:01:03.396Z,97322.19
2022-09-20T02:03:42.275Z,97317.66
2022-09-20T02:06:12.044Z,97323.00
2022-09-20T02:09:26.596Z,97314.38
2022-09-20T02:12:33.398Z,97326.47
2022-09-20T02:15:03.541Z,97323.66
2022-09-20T02:18:00.564Z,97322.59
2022-09-20T02:20:30.736Z,97327.19
2022-09-20T02:23:10.585Z,97326.50
2022-09-20T02:25:46.607Z,97334.50
2022-09-20T02:28:36.783Z,97333.63
2022-09-20T02:31:14.443Z,97327.44
2022-09-20T02:34:11.419Z,97335.41
2022-09-20T02:36:56.206Z,97330.88
2022-09-20T02:39:29.502Z,97327.75
2022-09-20T02:42:08.470Z,97333.84
2022-09-20T02:45:00.324Z,97337.28
2022-09-20T02:47:35.617Z,97333.78
2022-09-20T02:50:33.685Z,97340.88
2022-09-20T02:53:22.230Z,97347.84
2022-09-20T02:56:19.861Z,97335.44
2022-09-20T02:58:52.288Z,97338.03
2022-09-20T03:01:25.233Z,97336.19
2022-09-20T03:04:27.420Z,97341.50
2022-09-20T03:07:06.255Z,97336.28
2022-09-20T03:09:48.214Z,97339.78
2022-09-20T03:12:50.613Z,97344.06
2022-09-20T03:15:17.599Z,97338.03
2022-09-20T03:17:58.968Z,97333.91
2022-09-20T03:20:43.742Z,97345.53
2022-09-20T03:23:28.555Z,97349.19
2022-09-20T03:26:23.402Z,97349.13
2022-09-20T03:29:27.480Z,97342.81
2022-09-20T03:32:24.621Z,97338.56
2022-09-20T03:35:22.611Z,97349.09
2022-09-20T03:38:23.743Z,97353.41
2022-09-20T03:41:22.217Z,97352.50
2022-09-20T03:43:57.874Z,97356.16
2022-09-20T03:46:37.697Z,97357.94
2022-09-20T03:49:04.586Z,97357.13
2022-09-20T03:52:23.116Z,97367.41
2022-09-20T03:55:08.747Z,97360.44
2022-09-20T03:57:46.781Z,97367.34
2022-09-20T04:00:24.833Z,97369.06
2022-09-20T04:03:28.814Z,97368.06
2022-09-20T04:06:04.763Z,97374.16
2022-09-20T04:08:43.859Z,97380.50
2022-09-20T04:11:24.982Z,97375.38
2022-09-20T04:14:15.158Z,97379.72
2022-09-20T04:17:01.280Z,97383.13
2022-09-20T04:20:29.237Z,97389.25
2022-09-20T04:23:01.388Z,97384.66
2022-09-20T04:25:38.186Z,97386.22
2022-09-20T04:28:17.685Z,97387.00
2022-09-20T04:30:46.329Z,97389.47
2022-09-20T04:33:19.359Z,97390.25
2022-09-20T04:36:20.659Z,97394.53
2022-09-20T04:38:59.005Z,97396.94
2022-09-20T04:41:44.453Z,97385.59
2022-09-20T04:44:37.217Z,97376.81
2022-09-20T04:47:23.341Z,97392.47
2022-09-20T04:50:11.736Z,97393.34
2022-09-20T04:52:59.336Z,97383.78
2022-09-20T04:55:38.177Z,97386.53
2022-09-20T04:58:29.366Z,97384.81
2022-09-20T05:01:28.237Z,97378.75
2022-09-20T05:04:36.959Z,97388.34
2022-09-20T05:07:32.471Z,97395.59
2022-09-20T05:10:15.583Z,97402.44
2022-09-20T05:13:14.994Z,97395.47
2022-09-20T05:15:58.433Z,97397.09
2022-09-20T05:18:43.778Z,97395.28
2022-09-20T05:21:50.183Z,97399.69
2022-09-20T05:24:39.897Z,97398.72
2022-09-20T05:27:31.337Z,97404.63
2022-09-20T05:30:16.166Z,97396.72
2022-09-20T05:33:04.114Z,97392.19
2022-09-20T05:35:39.726Z,97400.13
2022-09-20T05:38:25.353Z,97399.25
2022-09-20T05:41:48.717Z,97400.72
2022-09-20T05:44:24.929Z,97405.88
2022-09-20T05:47:19.835Z,97399.56
2022-09-20T05:50:03.646Z,97400.88
2022-09-20T05:52:58.590Z,97401.53
2022-09-20T05:56:05.726Z,97404.88
2022-09-20T05:58:58.416Z,97408.56
2022-09-20T06:01:58.745Z,97406.78
2022-09-20T06:04:37.533Z,97412.06
2022-09-20T06:07:18.036Z,97415.09
2022-09-20T06:10:24.023Z,97416.88
2022-09-20T06:13:03.660Z,97414.25
2022-09-20T06:15:41.495Z,97414.00
2022-09-20T06:18:36.344Z,97416.22
2022-09-20T06:21:27.364Z,97414.31
2022-09-20T06:24:00.426Z,97410.59
2022-09-20T06:26:34.082Z,97413.75
2022-09-20T06:29:06.421Z,97411.78
2022-09-20T06:31:33.265Z,97407.03
2022-09-20T06:34:10.406Z,97411.84
2022-09-20T06:36:58.762Z,97406.06
2022-09-20T06:40:10.657Z,97403.41
2022-09-20T06:42:38.491Z,97410.34
2022-09-20T06:45:14.959Z,97418.91
2022-09-20T06:47:41.850Z,97411.84
2022-09-20T06:50:16.446Z,97421.72
2022-09-20T06:52:45.295Z,97414.81
2022-09-20T06:55:55.598Z,97424.00
2022-09-20T06:58:20.515Z,97423.94
2022-09-20T07:00:58.809Z,97421.16
2022-09-20T07:03:36.915Z,97419.19
2022-09-20T07:06:04.482Z,97427.72
2022-09-20T07:08:31.636Z,97422.47
2022-09-20T07:11:09.050Z,97430.06
2022-09-20T07:13:36.607Z,97425.53
2022-09-20T07:16:06.207Z,97420.97
2022-09-20T07:18:34.142Z,97425.97
2022-09-20T07:21:01.600Z,97432.19
2022-09-20T07:24:06.250Z,97422.66
2022-09-20T07:26:33.306Z,97426.16
2022-09-20T07:29:00.556Z,97427.72
2022-09-20T07:31:43.943Z,97434.31
2022-09-20T07:34:27.357Z,97431.13
2022-09-20T07:36:57.443Z,97430.78
2022-09-20T07:42:08.188Z,97430.56
2022-09-20T07:44:34.796Z,97430.19
2022-09-20T07:47:01.465Z,97434.31
2022-09-20T07:49:32.040Z,97439.72
2022-09-20T07:51:59.065Z,97433.03
2022-09-20T07:54:55.447Z,97431.78
2022-09-20T08:00:01.019Z,97429.88
2022-09-20T08:02:27.620Z,97434.41
2022-09-20T08:04:54.204Z,97443.78
2022-09-20T08:07:20.732Z,97436.66
2022-09-20T08:09:51.450Z,97433.44
2022-09-20T08:15:11.621Z,97437.34
2022-09-20T08:17:40.363Z,97436.50
2022-09-20T08:20:07.865Z,97429.72
2022-09-20T08:22:34.921Z,97431.75
2022-09-20T08:25:01.504Z,97432.28
2022-09-20T08:27:28.097Z,97431.25
2022-09-20T08:29:57.357Z,97432.59
2022-09-20T08:32:23.899Z,97428.84
2022-09-20T08:34:50.555Z,97426.16
2022-09-20T08:37:17.086Z,97417.75
2022-09-20T08:39:59.446Z,97416.75
2022-09-20T08:42:42.140Z,97425.47
2022-09-20T08:45:33.869Z,97415.25
2022-09-20T08:48:21.877Z,97414.97
2022-09-20T08:50:51.660Z,97410.97
2022-09-20T08:53:21.412Z,97404.97
2022-09-20T08:55:48.671Z,97404.03
2022-09-20T08:58:47.637Z,97405.47
2022-09-20T09:01:25.131Z,97405.53
2022-09-20T09:03:57.034Z,97399.53
2022-09-20T09:06:24.762Z,97402.03
2022-09-20T09:08:53.472Z,97399.34
2022-09-20T09:11:21.466Z,97410.97
2022-09-20T09:13:54.172Z,97396.16
2022-09-20T09:16:28.846Z,97390.06
2022-09-20T09:19:42.508Z,97393.00
2022-09-20T09:23:07.290Z,97383.00
2022-09-20T09:25:40.864Z,97376.94
2022-09-20T09:28:07.665Z,97384.88
2022-09-20T09:30:56.562Z,97372.50
2022-09-20T09:33:30.057Z,97381.81
2022-09-20T09:36:05.375Z,97381.63
2022-09-20T09:38:41.614Z,97376.84
2022-09-20T09:41:35.782Z,97383.25
2022-09-20T09:44:27.845Z,97378.78
2022-09-20T09:46:57.050Z,97375.69
2022-09-20T09:50:02.587Z,97381.00
2022-09-20T09:56:00.232Z,97387.38
2022-09-20T09:59:31.632Z,97388.28
2022-09-20T10:02:02.581Z,97380.66
2022-09-20T10:04:35.716Z,97382.13
2022-09-20T10:07:29.284Z,97385.63
2022-09-20T10:10:07.953Z,97381.91
2022-09-20T10:12:43.286Z,97380.34
2022-09-20T10:15:19.247Z,97384.63
2022-09-20T10:17:56.495Z,97386.06
2022-09-20T10:21:18.808Z,97377.44
2022-09-20T10:24:31.741Z,97370.38
2022-09-20T10:27:39.403Z,97372.00
2022-09-20T10:34:38.444Z,97373.06
2022-09-20T10:37:15.803Z,97375.88
2022-09-20T10:39:50.475Z,97376.94
2022-09-20T10:42:57.399Z,97372.25
2022-09-20T10:45:59.555Z,97376.16
2022-09-20T10:48:20.033Z,97372.03
2022-09-20T10:50:55.714Z,97370.91
2022-09-20T10:53:42.243Z,97369.53
2022-09-20T10:56:29.339Z,97370.66
2022-09-20T10:59:20.593Z,97364.81
2022-09-20T11:02:02.470Z,97372.50
2022-09-20T11:04:35.025Z,97372.44
2022-09-20T11:07:03.013Z,97379.41
2022-09-20T11:09:38.452Z,97381.69
2022-09-20T11:12:16.323Z,97375.63
2022-09-20T11:14:54.461Z,97370.59
2022-09-20T11:17:33.051Z,97376.97
2022-09-20T11:20:25.167Z,97371.31
2022-09-20T11:23:02.101Z,97372.78
2022-09-20T11:25:53.322Z,97366.84
2022-09-20T11:28:25.170Z,97366.34
2022-09-20T11:31:07.459Z,97366.44
2022-09-20T11:33:49.252Z,97351.19
2022-09-20T11:39:54.903Z,97352.78
2022-09-20T11:42:27.036Z,97351.09
2022-09-20T11:44:54.766Z,97345.59
2022-09-20T11:47:52.823Z,97344.09
2022-09-20T11:50:53.186Z,97342.75
2022-09-20T11:53:32.134Z,97339.44
2022-09-20T11:56:10.503Z,97334.63
2022-09-20T11:58:49.429Z,97328.50
2022-09-20T12:01:28.498Z,97322.53
2022-09-20T12:04:30.778Z,97331.81
2022-09-20T12:07:09.446Z,97326.03
2022-09-20T12:09:41.326Z,97329.38
2022-09-20T12:12:35.765Z,97332.25
2022-09-20T12:15:06.982Z,97331.78
2022-09-20T12:17:49.867Z,97335.66
2022-09-20T12:20:45.413Z,97329.91
2022-09-20T12:23:40.503Z,97339.03
2022-09-20T12:26:22.334Z,97336.91
2022-09-20T12:28:54.197Z,97333.66
2022-09-20T12:31:29.715Z,97327.84
2022-09-20T12:34:12.620Z,97335.75
2022-09-20T12:37:05.198Z,97337.47
2022-09-20T12:39:34.744Z,97332.63
2022-09-20T12:42:10.586Z,97332.69
2022-09-20T12:44:41.663Z,97330.66
2022-09-20T12:47:11.204Z,97339.91
2022-09-20T12:50:08.491Z,97335.53
2022-09-20T12:52:53.494Z,97343.78
2022-09-20T12:55:41.205Z,97341.22
2022-09-20T12:58:17.007Z,97346.34
2022-09-20T13:00:49.929Z,97347.31
2022-09-20T13:03:35.482Z,97356.41
2022-09-20T13:06:14.939Z,97353.84
2022-09-20T13:09:08.235Z,97350.66
2022-09-20T13:15:56.224Z,97361.94
2022-09-20T13:18:54.565Z,97364.81
2022-09-20T13:21:21.738Z,97362.25
2022-09-20T13:23:55.040Z,97353.06
2022-09-20T13:26:29.318Z,97363.25
2022-09-20T13:28:59.194Z,97364.84
2022-09-20T13:31:35.760Z,97365.56
2022-09-20T13:34:23.779Z,97362.56
2022-09-20T13:36:58.384Z,97367.03
2022-09-20T13:39:29.762Z,97363.69
2022-09-20T13:42:03.383Z,97361.16
2022-09-20T13:44:34.456Z,97365.88
2022-09-20T13:47:01.379Z,97368.72
2022-09-20T13:49:32.340Z,97373.06
2022-09-20T13:51:59.293Z,97386.88
2022-09-20T13:54:27.095Z,97401.53
2022-09-20T13:56:57.897Z,97398.00
2022-09-20T13:59:33.608Z,97405.69
2022-09-20T14:02:00.665Z,97410.78
2022-09-20T14:04:29.777Z,97406.00
2022-09-20T14:06:59.694Z,97408.84
2022-09-20T14:09:30.795Z,97414.00
2022-09-20T14:11:59.478Z,97409.63
2022-09-20T14:14:28.109Z,97401.78
2022-09-20T14:16:56.757Z,97416.72
2022-09-20T14:19:30.237Z,97412.63
2022-09-20T14:22:03.519Z,97410.22
2022-09-20T14:24:38.780Z,97419.22
2022-09-20T14:27:19.993Z,97414.59
2022-09-20T14:29:52.024Z,97408.59
2022-09-20T14:32:18.666Z,97414.16
2022-09-20T14:34:52.650Z,97415.44
2022-09-20T14:37:27.022Z,97417.44
2022-09-20T14:39:57.222Z,97409.28
2022-09-20T14:42:37.474Z,97412.44
2022-09-20T14:45:05.902Z,97413.81
2022-09-20T14:47:52.225Z,97421.91
2022-09-20T14:50:32.659Z,97411.00
2022-09-20T14:53:01.737Z,97412.75
2022-09-20T14:55:28.729Z,97409.34
2022-09-20T14:58:02.380Z,97415.56
2022-09-20T15:00:32.039Z,97415.97
2022-09-20T15:03:08.057Z,97411.00
2022-09-20T15:05:36.658Z,97409.38
2022-09-20T15:08:03.435Z,97401.47
2022-09-20T15:10:30.564Z,97406.91
2022-09-20T15:12:57.213Z,97411.69
2022-09-20T15:15:23.956Z,97400.97
2022-09-20T15:17:50.571Z,97402.69
2022-09-20T15:20:24.359Z,97405.22
2022-09-20T15:22:51.519Z,97407.66
2022-09-20T15:25:21.390Z,97407.59
2022-09-20T15:27:53.106Z,97413.56
2022-09-20T15:30:21.065Z,97417.28
2022-09-20T15:32:48.129Z,97406.22
2022-09-20T15:35:14.963Z,97422.25
2022-09-20T15:37:41.864Z,97423.13
2022-09-20T15:40:09.440Z,97420.91
2022-09-20T15:42:38.067Z,97428.75
2022-09-20T15:45:10.172Z,97428.66
2022-09-20T15:47:38.669Z,97438.31
2022-09-20T15:50:08.610Z,97441.00
2022-09-20T15:52:36.959Z,97440.50
2022-09-20T15:55:04.214Z,97456.56
2022-09-20T15:57:32.038Z,97450.75
2022-09-20T16:00:01.569Z,97459.19
2022-09-20T16:02:29.342Z,97454.28
2022-09-20T16:04:56.076Z,97461.63
2022-09-20T16:07:26.505Z,97455.34
2022-09-20T16:09:54.653Z,97460.09
2022-09-20T16:12:22.957Z,97452.31
2022-09-20T16:14:49.880Z,97464.25
2022-09-20T16:17:17.744Z,97464.56
2022-09-20T16:19:46.480Z,97469.16
2022-09-20T16:22:13.336Z,97463.88
2022-09-20T16:24:39.943Z,97466.03
2022-09-20T16:27:12.843Z,97469.06
2022-09-20T16:29:43.132Z,97472.81
2022-09-20T16:32:09.750Z,97477.63
2022-09-20T16:34:39.562Z,97479.34
2022-09-20T16:37:17.052Z,97479.56
2022-09-20T16:39:44.349Z,97481.75
2022-09-20T16:42:12.912Z,97485.47
2022-09-20T16:44:42.037Z,97491.34
2022-09-20T16:47:12.798Z,97488.41
2022-09-20T16:49:39.736Z,97488.81
2022-09-20T16:52:10.664Z,97487.91
2022-09-20T16:54:37.255Z,97490.72
2022-09-20T16:57:05.587Z,97498.13
2022-09-20T16:59:32.445Z,97494.16
2022-09-20T17:01:59.209Z,97495.22
2022-09-20T17:04:25.949Z,97491.91
2022-09-20T17:06:52.811Z,97498.53
2022-09-20T17:09:19.556Z,97493.34
2022-09-20T17:11:49.802Z,97496.19
2022-09-20T17:14:19.135Z,97494.84
2022-09-20T17:16:49.320Z,97495.91
2022-09-20T17:19:18.693Z,97492.25
2022-09-20T17:21:49.419Z,97495.91
2022-09-20T17:24:17.609Z,97500.19
2022-09-20T17:26:45.608Z,97499.47
2022-09-20T17:29:16.251Z,97505.69
2022-09-20T17:31:48.815Z,97507.31
2022-09-20T17:34:21.426Z,97509.03
2022-09-20T17:36:48.990Z,97512.97
2022-09-20T17:39:16.387Z,97510.81
2022-09-20T17:41:45.186Z,97518.31
2022-09-20T17:44:12.387Z,97516.41
2022-09-20T17:46:44.230Z,97513.03
2022-09-20T17:49:13.163Z,97515.34
2022-09-20T17:51:44.901Z,97519.72
2022-09-20T17:54:14.993Z,97518.84
2022-09-20T17:56:43.851Z,97525.25
2022-09-20T17:59:12.177Z,97529.69
2022-09-20T18:01:40.380Z,97531.19
2022-09-20T18:04:08.014Z,97528.03
2022-09-20T18:06:43.493Z,97522.94
2022-09-20T18:09:22.513Z,97529.63
2022-09-20T18:11:51.305Z,97530.19
2022-09-20T18:14:22.662Z,97540.06
2022-09-20T18:16:52.637Z,97539.13
2022-09-20T18:19:21.450Z,97550.41
2022-09-20T18:21:48.253Z,97541.97
2022-09-20T18:24:14.994Z,97548.25
2022-09-20T18:26:42.121Z,97548.25
2022-09-20T18:29:13.554Z,97546.03
2022-09-20T18:31:45.312Z,97550.69
2022-09-20T18:34:15.446Z,97544.84
2022-09-20T18:36:42.317Z,97547.91
2022-09-20T18:39:09.139Z,97556.84
2022-09-20T18:41:38.497Z,97562.53
2022-09-20T18:44:07.684Z,97566.66
2022-09-20T18:46:37.944Z,97563.16
2022-09-20T18:49:08.415Z,97564.28
2022-09-20T18:51:39.369Z,97552.94
2022-09-20T18:54:09.081Z,97566.16
2022-09-20T18:56:40.546Z,97568.06
2022-09-20T18:59:08.853Z,97567.47
2022-09-20T19:01:50.658Z,97563.97
2022-09-20T19:04:39.239Z,97563.56
2022-09-20T19:07:22.870Z,97560.53
2022-09-20T19:10:04.262Z,97564.25
2022-09-20T19:13:01.870Z,97573.22
2022-09-20T19:15:41.627Z,97575.25
2022-09-20T19:18:35.539Z,97572.78
2022-09-20T19:21:22.679Z,97573.00
2022-09-20T19:24:07.443Z,97577.06
2022-09-20T19:26:38.117Z,97574.66
2022-09-20T19:29:17.141Z,97571.78
2022-09-20T19:31:44.021Z,97576.19
2022-09-20T19:34:17.780Z,97582.66
2022-09-20T19:36:53.465Z,97579.31
2022-09-20T19:39:44.427Z,97587.31
2022-09-20T19:42:29.252Z,97589.09
2022-09-20T19:45:20.506Z,97588.16
2022-09-20T19:47:59.307Z,97585.72
2022-09-20T19:50:39.913Z,97583.94
2022-09-20T19:53:06.898Z,97590.00
2022-09-20T19:55:38.002Z,97581.06
2022-09-20T19:58:04.977Z,97584.22
2022-09-20T20:00:32.217Z,97589.19
2022-09-20T20:02:59.358Z,97589.13
2022-09-20T20:05:27.642Z,97590.72
2022-09-20T20:08:15.929Z,97599.56
2022-09-20T20:11:03.516Z,97600.78
2022-09-20T20:14:03.353Z,97609.63
2022-09-20T20:16:35.712Z,97605.19
2022-09-20T20:19:44.897Z,97602.63
2022-09-20T20:22:47.466Z,97605.31
2022-09-20T20:25:40.195Z,97611.44
2022-09-20T20:28:08.595Z,97608.19
2022-09-20T20:30:35.221Z,97600.41
2022-09-20T20:33:04.100Z,97603.97
2022-09-20T20:35:30.712Z,97604.16
2022-09-20T20:37:57.324Z,97602.56
2022-09-20T20:40:24.022Z,97602.75
2022-09-20T20:43:04.535Z,97604.72
2022-09-20T20:45:31.141Z,97618.19
2022-09-20T20:47:59.065Z,97606.72
2022-09-20T20:50:27.186Z,97607.81
2022-09-20T20:52:56.299Z,97617.72
2022-09-20T20:55:25.850Z,97614.47
2022-09-20T20:58:06.028Z,97604.78
2022-09-20T21:00:37.532Z,97619.97
2022-09-20T21:03:04.144Z,97617.47
2022-09-20T21:05:30.877Z,97619.00
2022-09-20T21:07:58.550Z,97614.31
2022-09-20T21:10:28.269Z,97614.13
2022-09-20T21:12:55.294Z,97617.69
2022-09-20T21:15:22.051Z,97618.34
2022-09-20T21:17:53.198Z,97619.19
2022-09-20T21:20:28.638Z,97615.78
2022-09-20T21:22:56.649Z,97622.84
2022-09-20T21:25:23.262Z,97610.56
2022-09-20T21:27:50.344Z,97609.81
2022-09-20T21:30:17.019Z,97617.56
2022-09-20T21:32:43.714Z,97616.56
2022-09-20T21:35:10.358Z,97613.94
2022-09-20T21:37:38.275Z,97610.44
2022-09-20T21:40:05.779Z,97616.44
2022-09-20T21:42:33.867Z,97614.66
2022-09-20T21:45:03.963Z,97613.91
2022-09-20T21:47:30.676Z,97617.56
2022-09-20T21:49:57.307Z,97616.66
2022-09-20T21:52:23.929Z,97622.56
2022-09-20T21:54:51.084Z,97619.09
2022-09-20T21:57:18.321Z,97614.50
2022-09-20T21:59:44.936Z,97611.88
2022-09-20T22:02:11.612Z,97612.72
2022-09-20T22:04:38.247Z,97612.84
2022-09-20T22:07:04.908Z,97622.53
2022-09-20T22:09:31.686Z,97617.81
2022-09-20T22:11:58.394Z,97614.31
2022-09-20T22:14:25.084Z,97608.44
2022-09-20T22:16:51.771Z,97612.97
2022-09-20T22:19:18.813Z,97613.06
2022-09-20T22:21:47.977Z,97611.25
2022-09-20T22:24:16.075Z,97614.56
2022-09-20T22:26:45.824Z,97618.94
2022-09-20T22:29:12.927Z,97614.66
2022-09-20T22:31:45.111Z,97620.69
2022-09-20T22:34:19.027Z,97621.84
2022-09-20T22:36:46.208Z,97614.88
2022-09-20T22:39:13.687Z,97622.56
2022-09-20T22:41:41.517Z,97623.56
2022-09-20T22:44:08.724Z,97624.47
2022-09-20T22:46:35.799Z,97626.88
2022-09-20T22:49:05.746Z,97626.03
2022-09-20T22:51:33.533Z,97625.31
2022-09-20T22:54:04.202Z,97635.09
2022-09-20T22:56:31.885Z,97636.88
2022-09-20T22:59:18.763Z,97623.69
2022-09-20T23:01:47.501Z,97629.94
2022-09-20T23:04:19.929Z,97630.16
2022-09-20T23:06:54.977Z,97629.06
2022-09-20T23:09:24.429Z,97624.66
2022-09-20T23:11:51.367Z,97623.97
2022-09-20T23:14:20.523Z,97623.97
2022-09-20T23:16:48.307Z,97627.53
2022-09-20T23:19:15.725Z,97616.31
2022-09-20T23:21:43.582Z,97615.63
2022-09-20T23:24:12.559Z,97616.72
2022-09-20T23:26:40.699Z,97622.00
2022-09-20T23:29:12.593Z,97619.38
2022-09-20T23:31:45.553Z,97619.47
2022-09-20T23:34:13.714Z,97613.38
2022-09-20T23:36:41.739Z,97622.13
2022-09-20T23:39:09.959Z,97614.22
2022-09-20T23:41:37.371Z,97618.63
2022-09-20T23:44:06.620Z,97616.31
2022-09-20T23:46:33.965Z,97619.06
2022-09-20T23:49:03.745Z,97613.75
2022-09-20T23:51:30.912Z,97620.53
2022-09-20T23:53:57.890Z,97621.47
2022-09-20T23:56:24.737Z,97619.59
2022-09-20T23:58:51.734Z,97624.06
